sensor_id;sensor_type;location;lat;lon;timestamp;temperature;humidity
48604;DHT22;32708;51.212;6.788;2022-09-12T00:01:22;15.80;99.90
48604;DHT22;32708;51.212;6.788;2022-09-12T00:03:58;15.90;99.90
48604;DHT22;32708;51.212;6.788;2022-09-12T00:06:29;15.90;99.90
48604;DHT22;32708;51.212;6.788;2022-09-12T00:08:58;15.80;99.90
48604;DHT22;32708;51.212;6.788;2022-09-12T00:11:26;15.80;99.90
48604;DHT22;32708;51.212;6.788;2022-09-12T00:14:00;15.80;99.90
48604;DHT22;32708;51.212;6.788;2022-09-12T00:16:29;15.90;99.90
48604;DHT22;32708;51.212;6.788;2022-09-12T00:18:56;15.90;99.90
48604;DHT22;32708;51.212;6.788;2022-09-12T00:21:23;16.00;99.90
48604;DHT22;32708;51.212;6.788;2022-09-12T00:23:50;15.90;99.90
48604;DHT22;32708;51.212;6.788;2022-09-12T00:26:20;16.00;99.90
48604;DHT22;32708;51.212;6.788;2022-09-12T00:28:47;16.00;99.90
48604;DHT22;32708;51.212;6.788;2022-09-12T00:31:16;15.90;99.90
48604;DHT22;32708;51.212;6.788;2022-09-12T00:33:44;15.80;99.90
48604;DHT22;32708;51.212;6.788;2022-09-12T00:36:16;15.70;99.90
48604;DHT22;32708;51.212;6.788;2022-09-12T00:38:43;15.80;99.90
48604;DHT22;32708;51.212;6.788;2022-09-12T00:41:21;15.70;99.90
48604;DHT22;32708;51.212;6.788;2022-09-12T00:43:56;15.70;99.90
48604;DHT22;32708;51.212;6.788;2022-09-12T00:49:14;15.60;99.90
48604;DHT22;32708;51.212;6.788;2022-09-12T00:51:51;15.70;99.90
48604;DHT22;32708;51.212;6.788;2022-09-12T00:54:26;15.60;99.90
48604;DHT22;32708;51.212;6.788;2022-09-12T00:57:00;15.60;99.90
48604;DHT22;32708;51.212;6.788;2022-09-12T00:59:39;15.60;99.90
48604;DHT22;32708;51.212;6.788;2022-09-12T01:02:09;15.50;99.90
48604;DHT22;32708;51.212;6.788;2022-09-12T01:04:40;15.50;99.90
48604;DHT22;32708;51.212;6.788;2022-09-12T01:07:07;15.60;99.90
48604;DHT22;32708;51.212;6.788;2022-09-12T01:09:36;15.60;99.90
48604;DHT22;32708;51.212;6.788;2022-09-12T01:12:03;15.70;99.90
48604;DHT22;32708;51.212;6.788;2022-09-12T01:14:31;15.70;99.90
48604;DHT22;32708;51.212;6.788;2022-09-12T01:16:57;15.40;99.90
48604;DHT22;32708;51.212;6.788;2022-09-12T01:26:14;15.50;99.90
48604;DHT22;32708;51.212;6.788;2022-09-12T01:29:26;15.50;99.90
48604;DHT22;32708;51.212;6.788;2022-09-12T01:32:47;15.40;99.90
48604;DHT22;32708;51.212;6.788;2022-09-12T01:35:31;15.40;99.90
48604;DHT22;32708;51.212;6.788;2022-09-12T01:38:11;15.30;99.90
48604;DHT22;32708;51.212;6.788;2022-09-12T01:41:10;15.30;99.90
48604;DHT22;32708;51.212;6.788;2022-09-12T01:46:16;15.30;99.90
48604;DHT22;32708;51.212;6.788;2022-09-12T01:52:13;15.40;99.90
48604;DHT22;32708;51.212;6.788;2022-09-12T01:57:28;15.30;99.90
48604;DHT22;32708;51.212;6.788;2022-09-12T02:00:06;15.20;99.90
48604;DHT22;32708;51.212;6.788;2022-09-12T02:02:50;15.20;99.90
48604;DHT22;32708;51.212;6.788;2022-09-12T02:06:07;15.10;99.90
48604;DHT22;32708;51.212;6.788;2022-09-12T02:08:54;15.00;99.90
48604;DHT22;32708;51.212;6.788;2022-09-12T02:11:23;15.00;99.90
48604;DHT22;32708;51.212;6.788;2022-09-12T02:14:07;14.90;99.90
48604;DHT22;32708;51.212;6.788;2022-09-12T02:16:41;14.90;99.90
48604;DHT22;32708;51.212;6.788;2022-09-12T02:19:17;14.90;99.90
48604;DHT22;32708;51.212;6.788;2022-09-12T02:21:55;14.90;99.90
48604;DHT22;32708;51.212;6.788;2022-09-12T02:24:28;14.90;99.90
48604;DHT22;32708;51.212;6.788;2022-09-12T02:27:04;14.90;99.90
48604;DHT22;32708;51.212;6.788;2022-09-12T02:29:32;14.90;99.90
48604;DHT22;32708;51.212;6.788;2022-09-12T02:32:06;14.80;99.90
48604;DHT22;32708;51.212;6.788;2022-09-12T02:34:50;14.80;99.90
48604;DHT22;32708;51.212;6.788;2022-09-12T02:40:03;14.70;99.90
48604;DHT22;32708;51.212;6.788;2022-09-12T02:42:35;14.70;99.90
48604;DHT22;32708;51.212;6.788;2022-09-12T02:45:03;14.70;99.90
48604;DHT22;32708;51.212;6.788;2022-09-12T02:47:48;14.70;99.90
48604;DHT22;32708;51.212;6.788;2022-09-12T02:50:15;14.70;99.90
48604;DHT22;32708;51.212;6.788;2022-09-12T02:52:43;14.70;99.90
48604;DHT22;32708;51.212;6.788;2022-09-12T02:55:10;14.70;99.90
48604;DHT22;32708;51.212;6.788;2022-09-12T02:57:37;14.70;99.90
48604;DHT22;32708;51.212;6.788;2022-09-12T03:00:04;14.70;99.90
48604;DHT22;32708;51.212;6.788;2022-09-12T03:05:36;14.70;99.90
48604;DHT22;32708;51.212;6.788;2022-09-12T03:08:11;14.60;99.90
48604;DHT22;32708;51.212;6.788;2022-09-12T03:10:54;14.60;99.90
48604;DHT22;32708;51.212;6.788;2022-09-12T03:13:49;14.50;99.90
48604;DHT22;32708;51.212;6.788;2022-09-12T03:22:19;14.60;99.90
48604;DHT22;32708;51.212;6.788;2022-09-12T03:25:15;14.60;99.90
48604;DHT22;32708;51.212;6.788;2022-09-12T03:28:10;14.50;99.90
48604;DHT22;32708;51.212;6.788;2022-09-12T03:30:47;14.50;99.90
48604;DHT22;32708;51.212;6.788;2022-09-12T03:33:23;14.50;99.90
48604;DHT22;32708;51.212;6.788;2022-09-12T03:35:50;14.50;99.90
48604;DHT22;32708;51.212;6.788;2022-09-12T03:38:22;14.50;99.90
48604;DHT22;32708;51.212;6.788;2022-09-12T03:40:48;14.50;99.90
48604;DHT22;32708;51.212;6.788;2022-09-12T03:43:14;14.50;99.90
48604;DHT22;32708;51.212;6.788;2022-09-12T03:45:43;14.50;99.90
48604;DHT22;32708;51.212;6.788;2022-09-12T03:48:09;14.50;99.90
48604;DHT22;32708;51.212;6.788;2022-09-12T03:50:35;14.50;99.90
48604;DHT22;32708;51.212;6.788;2022-09-12T03:53:02;14.50;99.90
48604;DHT22;32708;51.212;6.788;2022-09-12T03:55:29;14.50;99.90
48604;DHT22;32708;51.212;6.788;2022-09-12T03:57:55;14.50;99.90
48604;DHT22;32708;51.212;6.788;2022-09-12T04:00:26;14.60;99.90
48604;DHT22;32708;51.212;6.788;2022-09-12T04:02:54;14.60;99.90
48604;DHT22;32708;51.212;6.788;2022-09-12T04:05:24;14.50;99.90
48604;DHT22;32708;51.212;6.788;2022-09-12T04:07:51;14.50;99.90
48604;DHT22;32708;51.212;6.788;2022-09-12T04:10:17;14.50;99.90
48604;DHT22;32708;51.212;6.788;2022-09-12T04:12:43;14.40;99.90
48604;DHT22;32708;51.212;6.788;2022-09-12T04:15:19;14.50;99.90
48604;DHT22;32708;51.212;6.788;2022-09-12T04:17:46;14.40;99.90
48604;DHT22;32708;51.212;6.788;2022-09-12T04:20:12;14.30;99.90
48604;DHT22;32708;51.212;6.788;2022-09-12T04:22:38;14.30;99.90
48604;DHT22;32708;51.212;6.788;2022-09-12T04:25:05;14.30;99.90
48604;DHT22;32708;51.212;6.788;2022-09-12T04:27:31;14.30;99.90
48604;DHT22;32708;51.212;6.788;2022-09-12T04:29:59;14.30;99.90
48604;DHT22;32708;51.212;6.788;2022-09-12T04:32:30;14.40;99.90
48604;DHT22;32708;51.212;6.788;2022-09-12T04:34:57;14.40;99.90
48604;DHT22;32708;51.212;6.788;2022-09-12T04:37:26;14.30;99.90
48604;DHT22;32708;51.212;6.788;2022-09-12T04:39:52;14.30;99.90
48604;DHT22;32708;51.212;6.788;2022-09-12T04:42:23;14.40;99.90
48604;DHT22;32708;51.212;6.788;2022-09-12T04:44:49;14.40;99.90
48604;DHT22;32708;51.212;6.788;2022-09-12T04:47:15;14.30;99.90
48604;DHT22;32708;51.212;6.788;2022-09-12T04:49:41;14.30;99.90
48604;DHT22;32708;51.212;6.788;2022-09-12T04:52:08;14.30;99.90
48604;DHT22;32708;51.212;6.788;2022-09-12T04:54:36;14.30;99.90
48604;DHT22;32708;51.212;6.788;2022-09-12T04:57:03;14.30;99.90
48604;DHT22;32708;51.212;6.788;2022-09-12T04:59:30;14.30;99.90
48604;DHT22;32708;51.212;6.788;2022-09-12T05:01:56;14.30;99.90
48604;DHT22;32708;51.212;6.788;2022-09-12T05:04:22;14.30;99.90
48604;DHT22;32708;51.212;6.788;2022-09-12T05:06:48;14.40;99.90
48604;DHT22;32708;51.212;6.788;2022-09-12T05:09:14;14.40;99.90
48604;DHT22;32708;51.212;6.788;2022-09-12T05:11:43;14.40;99.90
48604;DHT22;32708;51.212;6.788;2022-09-12T05:14:10;14.50;99.90
48604;DHT22;32708;51.212;6.788;2022-09-12T05:16:38;14.50;99.90
48604;DHT22;32708;51.212;6.788;2022-09-12T05:19:09;14.50;99.90
48604;DHT22;32708;51.212;6.788;2022-09-12T05:21:35;14.50;99.90
48604;DHT22;32708;51.212;6.788;2022-09-12T05:24:02;14.60;99.90
48604;DHT22;32708;51.212;6.788;2022-09-12T05:26:30;14.60;99.90
48604;DHT22;32708;51.212;6.788;2022-09-12T05:28:59;14.70;99.90
48604;DHT22;32708;51.212;6.788;2022-09-12T05:31:30;14.70;99.90
48604;DHT22;32708;51.212;6.788;2022-09-12T05:33:56;14.70;99.90
48604;DHT22;32708;51.212;6.788;2022-09-12T05:36:28;14.80;99.90
48604;DHT22;32708;51.212;6.788;2022-09-12T05:39:07;15.00;99.90
48604;DHT22;32708;51.212;6.788;2022-09-12T05:41:34;15.10;99.90
48604;DHT22;32708;51.212;6.788;2022-09-12T05:44:03;15.30;99.90
48604;DHT22;32708;51.212;6.788;2022-09-12T05:49:13;15.40;99.90
48604;DHT22;32708;51.212;6.788;2022-09-12T05:51:43;15.50;99.90
48604;DHT22;32708;51.212;6.788;2022-09-12T05:54:13;15.60;99.90
48604;DHT22;32708;51.212;6.788;2022-09-12T05:56:41;15.70;99.90
48604;DHT22;32708;51.212;6.788;2022-09-12T05:59:18;15.70;99.90
48604;DHT22;32708;51.212;6.788;2022-09-12T06:01:47;15.90;99.90
48604;DHT22;32708;51.212;6.788;2022-09-12T06:04:15;16.10;99.90
48604;DHT22;32708;51.212;6.788;2022-09-12T06:06:44;16.30;99.90
48604;DHT22;32708;51.212;6.788;2022-09-12T06:09:13;16.40;99.80
48604;DHT22;32708;51.212;6.788;2022-09-12T06:11:40;16.50;99.40
48604;DHT22;32708;51.212;6.788;2022-09-12T06:14:08;16.60;98.90
48604;DHT22;32708;51.212;6.788;2022-09-12T06:16:35;16.60;99.10
48604;DHT22;32708;51.212;6.788;2022-09-12T06:19:12;16.80;98.90
48604;DHT22;32708;51.212;6.788;2022-09-12T06:21:39;17.40;96.40
48604;DHT22;32708;51.212;6.788;2022-09-12T06:24:13;17.60;94.20
48604;DHT22;32708;51.212;6.788;2022-09-12T06:26:39;17.80;93.20
48604;DHT22;32708;51.212;6.788;2022-09-12T06:29:06;17.90;92.40
48604;DHT22;32708;51.212;6.788;2022-09-12T06:31:35;17.90;92.50
48604;DHT22;32708;51.212;6.788;2022-09-12T06:34:04;18.10;92.30
48604;DHT22;32708;51.212;6.788;2022-09-12T06:36:40;18.10;92.00
48604;DHT22;32708;51.212;6.788;2022-09-12T06:39:16;18.30;90.70
48604;DHT22;32708;51.212;6.788;2022-09-12T06:41:46;18.90;86.00
48604;DHT22;32708;51.212;6.788;2022-09-12T06:44:19;18.80;84.00
48604;DHT22;32708;51.212;6.788;2022-09-12T06:46:47;18.60;82.50
48604;DHT22;32708;51.212;6.788;2022-09-12T06:49:14;18.60;84.80
48604;DHT22;32708;51.212;6.788;2022-09-12T06:51:40;18.80;84.00
48604;DHT22;32708;51.212;6.788;2022-09-12T06:54:08;18.80;83.40
48604;DHT22;32708;51.212;6.788;2022-09-12T06:56:36;18.70;83.20
48604;DHT22;32708;51.212;6.788;2022-09-12T06:59:02;18.60;84.40
48604;DHT22;32708;51.212;6.788;2022-09-12T07:01:30;18.90;85.90
48604;DHT22;32708;51.212;6.788;2022-09-12T07:04:01;18.90;83.90
48604;DHT22;32708;51.212;6.788;2022-09-12T07:06:33;18.90;82.10
48604;DHT22;32708;51.212;6.788;2022-09-12T07:09:08;18.90;81.60
48604;DHT22;32708;51.212;6.788;2022-09-12T07:11:37;18.80;83.70
48604;DHT22;32708;51.212;6.788;2022-09-12T07:14:05;18.80;83.20
48604;DHT22;32708;51.212;6.788;2022-09-12T07:16:34;18.90;84.30
48604;DHT22;32708;51.212;6.788;2022-09-12T07:19:03;18.70;84.60
48604;DHT22;32708;51.212;6.788;2022-09-12T07:21:29;18.30;91.50
48604;DHT22;32708;51.212;6.788;2022-09-12T07:23:56;18.30;90.90
48604;DHT22;32708;51.212;6.788;2022-09-12T07:26:25;18.40;90.20
48604;DHT22;32708;51.212;6.788;2022-09-12T07:28:53;18.40;90.60
48604;DHT22;32708;51.212;6.788;2022-09-12T07:31:22;18.30;90.70
48604;DHT22;32708;51.212;6.788;2022-09-12T07:33:49;18.20;91.70
48604;DHT22;32708;51.212;6.788;2022-09-12T07:36:18;18.40;90.90
48604;DHT22;32708;51.212;6.788;2022-09-12T07:38:45;18.50;90.90
48604;DHT22;32708;51.212;6.788;2022-09-12T07:41:23;18.60;89.80
48604;DHT22;32708;51.212;6.788;2022-09-12T07:43:54;18.60;90.60
48604;DHT22;32708;51.212;6.788;2022-09-12T07:46:22;18.80;87.50
48604;DHT22;32708;51.212;6.788;2022-09-12T07:48:57;18.90;86.00
48604;DHT22;32708;51.212;6.788;2022-09-12T07:51:25;19.00;85.00
48604;DHT22;32708;51.212;6.788;2022-09-12T07:53:51;19.30;80.20
48604;DHT22;32708;51.212;6.788;2022-09-12T07:56:19;19.40;77.30
48604;DHT22;32708;51.212;6.788;2022-09-12T07:58:46;19.10;82.00
48604;DHT22;32708;51.212;6.788;2022-09-12T08:01:18;18.90;85.70
48604;DHT22;32708;51.212;6.788;2022-09-12T08:03:52;18.90;86.00
48604;DHT22;32708;51.212;6.788;2022-09-12T08:06:22;18.80;88.40
48604;DHT22;32708;51.212;6.788;2022-09-12T08:08:49;19.00;84.60
48604;DHT22;32708;51.212;6.788;2022-09-12T08:11:18;19.10;84.40
48604;DHT22;32708;51.212;6.788;2022-09-12T08:13:45;19.20;83.10
48604;DHT22;32708;51.212;6.788;2022-09-12T08:16:18;19.30;83.80
48604;DHT22;32708;51.212;6.788;2022-09-12T08:18:46;19.60;78.10
48604;DHT22;32708;51.212;6.788;2022-09-12T08:21:15;20.00;72.70
48604;DHT22;32708;51.212;6.788;2022-09-12T08:23:43;20.30;64.80
48604;DHT22;32708;51.212;6.788;2022-09-12T08:26:11;20.50;58.80
48604;DHT22;32708;51.212;6.788;2022-09-12T08:28:38;20.50;60.50
48604;DHT22;32708;51.212;6.788;2022-09-12T08:31:10;20.80;52.90
48604;DHT22;32708;51.212;6.788;2022-09-12T08:33:37;20.50;57.80
48604;DHT22;32708;51.212;6.788;2022-09-12T08:36:12;20.50;60.60
48604;DHT22;32708;51.212;6.788;2022-09-12T08:38:44;20.40;61.60
48604;DHT22;32708;51.212;6.788;2022-09-12T08:49:33;22.30;18.30
48604;DHT22;32708;51.212;6.788;2022-09-12T08:54:50;22.50;13.00
48604;DHT22;32708;51.212;6.788;2022-09-12T08:57:16;23.40;1.00
48604;DHT22;32708;51.212;6.788;2022-09-12T08:59:44;23.40;1.00
48604;DHT22;32708;51.212;6.788;2022-09-12T09:02:49;23.60;1.00
48604;DHT22;32708;51.212;6.788;2022-09-12T09:17:26;23.30;1.00
48604;DHT22;32708;51.212;6.788;2022-09-12T09:20:18;22.70;1.00
48604;DHT22;32708;51.212;6.788;2022-09-12T09:23:01;22.90;1.00
48604;DHT22;32708;51.212;6.788;2022-09-12T09:30:48;23.10;99.90
48604;DHT22;32708;51.212;6.788;2022-09-12T09:33:21;23.10;99.90
48604;DHT22;32708;51.212;6.788;2022-09-12T09:39:18;23.40;99.90
48604;DHT22;32708;51.212;6.788;2022-09-12T09:44:34;23.70;99.90
48604;DHT22;32708;51.212;6.788;2022-09-12T09:47:01;23.90;99.90
48604;DHT22;32708;51.212;6.788;2022-09-12T09:49:31;24.20;1.00
48604;DHT22;32708;51.212;6.788;2022-09-12T09:51:58;24.50;55.90
48604;DHT22;32708;51.212;6.788;2022-09-12T09:54:35;24.70;99.90
48604;DHT22;32708;51.212;6.788;2022-09-12T09:57:03;24.80;99.90
48604;DHT22;32708;51.212;6.788;2022-09-12T09:59:33;25.20;99.90
48604;DHT22;32708;51.212;6.788;2022-09-12T10:02:07;25.50;99.90
48604;DHT22;32708;51.212;6.788;2022-09-12T10:04:56;25.00;99.90
48604;DHT22;32708;51.212;6.788;2022-09-12T10:07:25;25.40;1.00
48604;DHT22;32708;51.212;6.788;2022-09-12T10:12:38;25.60;99.90
48604;DHT22;32708;51.212;6.788;2022-09-12T10:15:20;25.40;99.90
48604;DHT22;32708;51.212;6.788;2022-09-12T10:17:49;25.40;99.90
48604;DHT22;32708;51.212;6.788;2022-09-12T10:20:36;25.20;99.90
48604;DHT22;32708;51.212;6.788;2022-09-12T10:25:58;26.00;63.30
48604;DHT22;32708;51.212;6.788;2022-09-12T10:28:52;25.70;99.90
48604;DHT22;32708;51.212;6.788;2022-09-12T10:31:35;25.80;15.60
48604;DHT22;32708;51.212;6.788;2022-09-12T10:34:29;25.80;99.90
48604;DHT22;32708;51.212;6.788;2022-09-12T10:37:06;26.10;99.90
48604;DHT22;32708;51.212;6.788;2022-09-12T10:39:36;26.00;99.90
48604;DHT22;32708;51.212;6.788;2022-09-12T10:42:04;25.80;99.90
48604;DHT22;32708;51.212;6.788;2022-09-12T10:44:32;25.90;99.90
48604;DHT22;32708;51.212;6.788;2022-09-12T10:47:19;26.30;1.00
48604;DHT22;32708;51.212;6.788;2022-09-12T10:49:46;26.90;99.90
48604;DHT22;32708;51.212;6.788;2022-09-12T10:52:30;27.10;99.90
48604;DHT22;32708;51.212;6.788;2022-09-12T10:54:56;26.60;99.90
48604;DHT22;32708;51.212;6.788;2022-09-12T10:57:45;26.50;80.40
48604;DHT22;32708;51.212;6.788;2022-09-12T11:00:23;26.40;99.90
48604;DHT22;32708;51.212;6.788;2022-09-12T11:03:05;26.30;99.90
48604;DHT22;32708;51.212;6.788;2022-09-12T11:08:39;27.20;21.00
48604;DHT22;32708;51.212;6.788;2022-09-12T11:28:02;26.20;9.70
48604;DHT22;32708;51.212;6.788;2022-09-12T11:30:44;26.80;29.40
48604;DHT22;32708;51.212;6.788;2022-09-12T11:33:54;27.00;99.90
48604;DHT22;32708;51.212;6.788;2022-09-12T11:36:31;27.10;99.90
48604;DHT22;32708;51.212;6.788;2022-09-12T11:39:13;26.60;99.90
48604;DHT22;32708;51.212;6.788;2022-09-12T11:41:51;25.90;99.90
48604;DHT22;32708;51.212;6.788;2022-09-12T11:44:26;26.40;99.90
48604;DHT22;32708;51.212;6.788;2022-09-12T11:46:54;26.20;99.90
48604;DHT22;32708;51.212;6.788;2022-09-12T11:49:47;26.40;99.90
48604;DHT22;32708;51.212;6.788;2022-09-12T11:52:24;26.60;99.90
48604;DHT22;32708;51.212;6.788;2022-09-12T11:57:47;26.30;99.90
48604;DHT22;32708;51.212;6.788;2022-09-12T12:00:20;26.30;99.90
48604;DHT22;32708;51.212;6.788;2022-09-12T12:05:55;26.30;99.90
48604;DHT22;32708;51.212;6.788;2022-09-12T12:08:25;26.00;99.90
48604;DHT22;32708;51.212;6.788;2022-09-12T12:11:04;25.40;99.90
48604;DHT22;32708;51.212;6.788;2022-09-12T12:13:34;25.30;99.90
48604;DHT22;32708;51.212;6.788;2022-09-12T12:16:23;25.10;99.90
48604;DHT22;32708;51.212;6.788;2022-09-12T12:19:18;25.30;99.90
48604;DHT22;32708;51.212;6.788;2022-09-12T12:21:50;25.00;99.90
48604;DHT22;32708;51.212;6.788;2022-09-12T12:24:21;25.00;99.90
48604;DHT22;32708;51.212;6.788;2022-09-12T12:34:44;25.30;99.90
48604;DHT22;32708;51.212;6.788;2022-09-12T12:47:52;25.40;99.90
48604;DHT22;32708;51.212;6.788;2022-09-12T12:50:26;25.50;99.90
48604;DHT22;32708;51.212;6.788;2022-09-12T12:52:59;25.50;99.90
48604;DHT22;32708;51.212;6.788;2022-09-12T12:58:00;25.40;99.90
48604;DHT22;32708;51.212;6.788;2022-09-12T13:00:39;25.30;99.90
48604;DHT22;32708;51.212;6.788;2022-09-12T13:05:46;25.20;99.90
48604;DHT22;32708;51.212;6.788;2022-09-12T13:11:02;25.30;99.90
48604;DHT22;32708;51.212;6.788;2022-09-12T13:13:50;25.50;99.90
48604;DHT22;32708;51.212;6.788;2022-09-12T13:19:27;25.50;99.90
48604;DHT22;32708;51.212;6.788;2022-09-12T13:22:14;25.60;99.90
48604;DHT22;32708;51.212;6.788;2022-09-12T13:24:49;25.80;99.90
48604;DHT22;32708;51.212;6.788;2022-09-12T13:27:23;25.90;99.90
48604;DHT22;32708;51.212;6.788;2022-09-12T13:30:07;25.90;99.90
48604;DHT22;32708;51.212;6.788;2022-09-12T13:32:34;25.80;99.90
48604;DHT22;32708;51.212;6.788;2022-09-12T13:35:06;25.60;99.90
48604;DHT22;32708;51.212;6.788;2022-09-12T13:38:15;25.50;99.90
48604;DHT22;32708;51.212;6.788;2022-09-12T13:41:01;25.60;99.90
48604;DHT22;32708;51.212;6.788;2022-09-12T13:43:40;25.70;99.90
48604;DHT22;32708;51.212;6.788;2022-09-12T13:46:11;25.70;99.90
48604;DHT22;32708;51.212;6.788;2022-09-12T13:48:40;25.80;99.90
48604;DHT22;32708;51.212;6.788;2022-09-12T13:51:18;25.80;99.90
48604;DHT22;32708;51.212;6.788;2022-09-12T13:53:47;25.80;99.90
48604;DHT22;32708;51.212;6.788;2022-09-12T13:56:20;25.80;99.90
48604;DHT22;32708;51.212;6.788;2022-09-12T13:58:59;25.90;99.90
48604;DHT22;32708;51.212;6.788;2022-09-12T14:01:43;25.90;99.90
48604;DHT22;32708;51.212;6.788;2022-09-12T14:07:20;25.80;99.90
48604;DHT22;32708;51.212;6.788;2022-09-12T14:09:55;25.90;99.90
48604;DHT22;32708;51.212;6.788;2022-09-12T14:12:40;25.90;99.90
48604;DHT22;32708;51.212;6.788;2022-09-12T14:15:21;26.10;99.90
48604;DHT22;32708;51.212;6.788;2022-09-12T14:17:53;26.10;99.90
48604;DHT22;32708;51.212;6.788;2022-09-12T14:20:22;25.90;99.90
48604;DHT22;32708;51.212;6.788;2022-09-12T14:22:52;25.90;99.90
48604;DHT22;32708;51.212;6.788;2022-09-12T14:25:37;25.80;99.90
48604;DHT22;32708;51.212;6.788;2022-09-12T14:28:12;25.80;99.90
48604;DHT22;32708;51.212;6.788;2022-09-12T14:30:39;25.80;99.90
48604;DHT22;32708;51.212;6.788;2022-09-12T14:35:55;25.60;99.90
48604;DHT22;32708;51.212;6.788;2022-09-12T14:38:36;25.60;99.90
48604;DHT22;32708;51.212;6.788;2022-09-12T14:41:08;25.80;99.90
48604;DHT22;32708;51.212;6.788;2022-09-12T14:43:45;25.90;99.90
48604;DHT22;32708;51.212;6.788;2022-09-12T14:46:40;25.90;99.90
48604;DHT22;32708;51.212;6.788;2022-09-12T14:49:33;25.80;99.90
48604;DHT22;32708;51.212;6.788;2022-09-12T14:52:14;25.80;99.90
48604;DHT22;32708;51.212;6.788;2022-09-12T14:55:18;25.80;99.90
48604;DHT22;32708;51.212;6.788;2022-09-12T14:57:46;25.50;99.90
48604;DHT22;32708;51.212;6.788;2022-09-12T15:02:42;25.80;99.90
48604;DHT22;32708;51.212;6.788;2022-09-12T15:08:01;25.80;99.90
48604;DHT22;32708;51.212;6.788;2022-09-12T15:10:35;25.60;99.90
48604;DHT22;32708;51.212;6.788;2022-09-12T15:15:36;25.80;99.90
48604;DHT22;32708;51.212;6.788;2022-09-12T15:18:03;25.80;99.90
48604;DHT22;32708;51.212;6.788;2022-09-12T15:20:37;25.80;99.90
48604;DHT22;32708;51.212;6.788;2022-09-12T15:25:58;25.90;99.90
48604;DHT22;32708;51.212;6.788;2022-09-12T15:28:25;25.80;99.90
48604;DHT22;32708;51.212;6.788;2022-09-12T15:30:57;25.80;99.90
48604;DHT22;32708;51.212;6.788;2022-09-12T15:33:24;25.60;99.90
48604;DHT22;32708;51.212;6.788;2022-09-12T15:35:51;25.60;99.90
48604;DHT22;32708;51.212;6.788;2022-09-12T15:38:18;25.70;99.90
48604;DHT22;32708;51.212;6.788;2022-09-12T15:40:49;25.60;99.90
48604;DHT22;32708;51.212;6.788;2022-09-12T15:43:19;25.60;99.90
48604;DHT22;32708;51.212;6.788;2022-09-12T15:45:48;25.60;99.90
48604;DHT22;32708;51.212;6.788;2022-09-12T15:48:14;25.60;99.90
48604;DHT22;32708;51.212;6.788;2022-09-12T15:50:40;25.60;99.90
48604;DHT22;32708;51.212;6.788;2022-09-12T15:53:13;25.50;99.90
48604;DHT22;32708;51.212;6.788;2022-09-12T15:55:40;25.40;99.90
48604;DHT22;32708;51.212;6.788;2022-09-12T15:58:08;25.50;99.90
48604;DHT22;32708;51.212;6.788;2022-09-12T16:00:36;25.40;99.90
48604;DHT22;32708;51.212;6.788;2022-09-12T16:03:03;25.30;99.90
48604;DHT22;32708;51.212;6.788;2022-09-12T16:05:35;25.30;99.90
48604;DHT22;32708;51.212;6.788;2022-09-12T16:08:03;25.40;99.90
48604;DHT22;32708;51.212;6.788;2022-09-12T16:10:33;25.40;99.90
48604;DHT22;32708;51.212;6.788;2022-09-12T16:13:00;25.40;99.90
48604;DHT22;32708;51.212;6.788;2022-09-12T16:15:26;25.40;99.90
48604;DHT22;32708;51.212;6.788;2022-09-12T16:17:52;25.40;99.90
48604;DHT22;32708;51.212;6.788;2022-09-12T16:20:19;25.40;99.90
48604;DHT22;32708;51.212;6.788;2022-09-12T16:22:47;25.30;99.90
48604;DHT22;32708;51.212;6.788;2022-09-12T16:25:13;25.30;99.90
48604;DHT22;32708;51.212;6.788;2022-09-12T16:27:39;25.30;99.90
48604;DHT22;32708;51.212;6.788;2022-09-12T16:30:07;25.30;99.90
48604;DHT22;32708;51.212;6.788;2022-09-12T16:32:33;25.30;99.90
48604;DHT22;32708;51.212;6.788;2022-09-12T16:34:59;25.30;99.90
48604;DHT22;32708;51.212;6.788;2022-09-12T16:37:26;25.20;99.90
48604;DHT22;32708;51.212;6.788;2022-09-12T16:39:53;25.20;99.90
48604;DHT22;32708;51.212;6.788;2022-09-12T16:42:19;25.20;99.90
48604;DHT22;32708;51.212;6.788;2022-09-12T16:44:46;25.20;99.90
48604;DHT22;32708;51.212;6.788;2022-09-12T16:47:13;25.30;99.90
48604;DHT22;32708;51.212;6.788;2022-09-12T16:49:42;25.30;99.90
48604;DHT22;32708;51.212;6.788;2022-09-12T16:52:09;25.20;99.90
48604;DHT22;32708;51.212;6.788;2022-09-12T16:54:37;25.20;99.90
48604;DHT22;32708;51.212;6.788;2022-09-12T16:57:05;25.20;99.90
48604;DHT22;32708;51.212;6.788;2022-09-12T16:59:31;25.20;99.90
48604;DHT22;32708;51.212;6.788;2022-09-12T17:01:57;25.20;99.90
48604;DHT22;32708;51.212;6.788;2022-09-12T17:04:24;25.30;99.90
48604;DHT22;32708;51.212;6.788;2022-09-12T17:06:50;25.20;99.90
48604;DHT22;32708;51.212;6.788;2022-09-12T17:09:16;25.10;99.90
48604;DHT22;32708;51.212;6.788;2022-09-12T17:11:55;25.10;99.90
48604;DHT22;32708;51.212;6.788;2022-09-12T17:14:45;25.10;99.90
48604;DHT22;32708;51.212;6.788;2022-09-12T17:17:11;25.10;99.90
48604;DHT22;32708;51.212;6.788;2022-09-12T17:19:38;25.00;99.90
48604;DHT22;32708;51.212;6.788;2022-09-12T17:22:04;25.00;99.90
48604;DHT22;32708;51.212;6.788;2022-09-12T17:24:30;25.00;99.90
48604;DHT22;32708;51.212;6.788;2022-09-12T17:26:57;25.00;99.90
48604;DHT22;32708;51.212;6.788;2022-09-12T17:29:24;24.80;99.90
48604;DHT22;32708;51.212;6.788;2022-09-12T17:31:50;24.80;99.90
48604;DHT22;32708;51.212;6.788;2022-09-12T17:34:16;24.80;99.90
48604;DHT22;32708;51.212;6.788;2022-09-12T17:36:43;24.70;99.90
48604;DHT22;32708;51.212;6.788;2022-09-12T17:39:11;24.50;99.90
48604;DHT22;32708;51.212;6.788;2022-09-12T17:41:37;24.50;99.90
48604;DHT22;32708;51.212;6.788;2022-09-12T17:44:04;24.40;1.00
48604;DHT22;32708;51.212;6.788;2022-09-12T17:46:35;24.40;1.00
48604;DHT22;32708;51.212;6.788;2022-09-12T17:49:16;24.40;1.00
48604;DHT22;32708;51.212;6.788;2022-09-12T17:51:45;24.30;6.90
48604;DHT22;32708;51.212;6.788;2022-09-12T17:54:13;24.20;60.30
48604;DHT22;32708;51.212;6.788;2022-09-12T17:56:44;24.10;99.90
48604;DHT22;32708;51.212;6.788;2022-09-12T18:01:50;24.00;99.90
48604;DHT22;32708;51.212;6.788;2022-09-12T18:04:35;23.90;99.90
48604;DHT22;32708;51.212;6.788;2022-09-12T18:07:02;23.90;99.90
48604;DHT22;32708;51.212;6.788;2022-09-12T18:09:31;23.70;1.00
48604;DHT22;32708;51.212;6.788;2022-09-12T18:11:58;23.70;1.00
48604;DHT22;32708;51.212;6.788;2022-09-12T18:14:29;23.60;99.90
48604;DHT22;32708;51.212;6.788;2022-09-12T18:16:55;23.60;99.90
48604;DHT22;32708;51.212;6.788;2022-09-12T18:19:22;23.50;99.90
48604;DHT22;32708;51.212;6.788;2022-09-12T18:21:51;23.50;99.90
48604;DHT22;32708;51.212;6.788;2022-09-12T18:24:18;23.50;99.90
48604;DHT22;32708;51.212;6.788;2022-09-12T18:26:44;23.40;1.00
48604;DHT22;32708;51.212;6.788;2022-09-12T18:29:12;23.40;1.00
48604;DHT22;32708;51.212;6.788;2022-09-12T18:31:42;23.30;41.60